sensor_id;sensor_type;location;lat;lon;timestamp;pressure;altitude;pressure_sealevel;temperature;humidity
15529;BME280;7866;52.280;9.500;2024-03-02T00:03:08;99134.81;;;8.91;86.68
15529;BME280;7866;52.280;9.500;2024-03-02T00:08:10;99135.00;;;8.89;86.96
15529;BME280;7866;52.280;9.500;2024-03-02T00:13:14;99128.72;;;8.97;86.48
15529;BME280;7866;52.280;9.500;2024-03-02T00:18:19;99125.06;;;8.98;86.14
15529;BME280;7866;52.280;9.500;2024-03-02T00:23:21;99122.09;;;8.93;86.62
15529;BME280;7866;52.280;9.500;2024-03-02T00:28:25;99131.25;;;8.84;86.76
15529;BME280;7866;52.280;9.500;2024-03-02T00:33:30;99125.78;;;8.92;86.99
15529;BME280;7866;52.280;9.500;2024-03-02T00:38:33;99130.13;;;8.93;87.10
15529;BME280;7866;52.280;9.500;2024-03-02T00:43:45;99132.63;;;8.95;86.62
15529;BME280;7866;52.280;9.500;2024-03-02T00:48:53;99133.13;;;9.05;86.09
15529;BME280;7866;52.280;9.500;2024-03-02T00:53:58;99130.75;;;8.95;87.04
15529;BME280;7866;52.280;9.500;2024-03-02T00:59:01;99137.38;;;8.99;86.94
15529;BME280;7866;52.280;9.500;2024-03-02T01:04:03;99139.16;;;8.92;86.74
15529;BME280;7866;52.280;9.500;2024-03-02T01:09:05;99137.75;;;8.96;86.94
15529;BME280;7866;52.280;9.500;2024-03-02T01:14:08;99133.66;;;8.79;87.45
15529;BME280;7866;52.280;9.500;2024-03-02T01:19:10;99131.28;;;8.69;87.75
15529;BME280;7866;52.280;9.500;2024-03-02T01:24:12;99125.72;;;8.85;88.61
15529;BME280;7866;52.280;9.500;2024-03-02T01:29:15;99116.31;;;8.89;87.78
15529;BME280;7866;52.280;9.500;2024-03-02T01:34:17;99120.00;;;8.88;87.92
15529;BME280;7866;52.280;9.500;2024-03-02T01:39:18;99122.66;;;8.88;88.30
15529;BME280;7866;52.280;9.500;2024-03-02T01:44:21;99117.16;;;8.90;88.17
15529;BME280;7866;52.280;9.500;2024-03-02T01:49:23;99113.59;;;8.83;87.84
15529;BME280;7866;52.280;9.500;2024-03-02T01:54:25;99111.81;;;8.90;87.86
15529;BME280;7866;52.280;9.500;2024-03-02T01:59:28;99112.28;;;8.94;87.22
15529;BME280;7866;52.280;9.500;2024-03-02T02:04:29;99103.69;;;8.98;86.92
15529;BME280;7866;52.280;9.500;2024-03-02T02:09:31;99103.41;;;8.93;87.12
15529;BME280;7866;52.280;9.500;2024-03-02T02:14:34;99108.88;;;8.85;87.32
15529;BME280;7866;52.280;9.500;2024-03-02T02:19:36;99093.91;;;8.69;87.79
15529;BME280;7866;52.280;9.500;2024-03-02T02:24:41;99089.84;;;8.73;89.02
15529;BME280;7866;52.280;9.500;2024-03-02T02:29:42;99087.16;;;8.73;88.50
15529;BME280;7866;52.280;9.500;2024-03-02T02:34:44;99079.56;;;8.70;88.76
15529;BME280;7866;52.280;9.500;2024-03-02T02:39:48;99088.41;;;8.71;88.75
15529;BME280;7866;52.280;9.500;2024-03-02T02:44:50;99091.44;;;8.53;88.96
15529;BME280;7866;52.280;9.500;2024-03-02T02:49:51;99076.00;;;8.63;89.33
15529;BME280;7866;52.280;9.500;2024-03-02T02:54:54;99078.53;;;8.71;88.10
15529;BME280;7866;52.280;9.500;2024-03-02T02:59:56;99076.00;;;8.63;88.32
15529;BME280;7866;52.280;9.500;2024-03-02T03:04:57;99073.78;;;8.67;88.31
15529;BME280;7866;52.280;9.500;2024-03-02T03:10:00;99070.44;;;8.64;88.52
15529;BME280;7866;52.280;9.500;2024-03-02T03:15:04;99074.59;;;8.67;89.05
15529;BME280;7866;52.280;9.500;2024-03-02T03:20:07;99069.16;;;8.60;88.48
15529;BME280;7866;52.280;9.500;2024-03-02T03:25:12;99063.78;;;8.54;88.86
15529;BME280;7866;52.280;9.500;2024-03-02T03:30:14;99053.09;;;8.54;88.74
15529;BME280;7866;52.280;9.500;2024-03-02T03:35:15;99065.22;;;8.56;88.38
15529;BME280;7866;52.280;9.500;2024-03-02T03:40:20;99068.78;;;8.42;88.82
15529;BME280;7866;52.280;9.500;2024-03-02T03:45:21;99056.59;;;8.25;89.20
15529;BME280;7866;52.280;9.500;2024-03-02T03:50:25;99061.00;;;8.18;89.94
15529;BME280;7866;52.280;9.500;2024-03-02T03:55:28;99060.00;;;7.89;90.00
15529;BME280;7866;52.280;9.500;2024-03-02T04:00:30;99053.84;;;7.59;91.44
15529;BME280;7866;52.280;9.500;2024-03-02T04:05:31;99054.69;;;7.74;92.45
15529;BME280;7866;52.280;9.500;2024-03-02T04:10:34;99049.44;;;7.96;92.42
15529;BME280;7866;52.280;9.500;2024-03-02T04:15:36;99057.44;;;7.66;92.91
15529;BME280;7866;52.280;9.500;2024-03-02T04:20:37;99052.22;;;8.02;92.61
15529;BME280;7866;52.280;9.500;2024-03-02T04:25:40;99052.38;;;8.15;91.61
15529;BME280;7866;52.280;9.500;2024-03-02T04:30:42;99063.78;;;7.80;91.05
15529;BME280;7866;52.280;9.500;2024-03-02T04:35:43;99056.81;;;7.41;91.84
15529;BME280;7866;52.280;9.500;2024-03-02T04:40:46;99060.47;;;7.25;93.05
15529;BME280;7866;52.280;9.500;2024-03-02T04:45:48;99057.72;;;7.19;93.42
15529;BME280;7866;52.280;9.500;2024-03-02T04:50:50;99058.59;;;7.11;94.61
15529;BME280;7866;52.280;9.500;2024-03-02T04:55:53;99050.28;;;7.06;95.40
15529;BME280;7866;52.280;9.500;2024-03-02T05:01:20;99050.63;;;7.26;95.21
15529;BME280;7866;52.280;9.500;2024-03-02T05:06:22;99056.31;;;7.60;94.79
15529;BME280;7866;52.280;9.500;2024-03-02T05:11:25;99059.88;;;7.53;93.20
15529;BME280;7866;52.280;9.500;2024-03-02T05:16:44;99054.66;;;7.59;93.61
15529;BME280;7866;52.280;9.500;2024-03-02T05:21:45;99059.91;;;7.68;92.89
15529;BME280;7866;52.280;9.500;2024-03-02T05:26:48;99064.38;;;7.52;92.71
15529;BME280;7866;52.280;9.500;2024-03-02T05:31:50;99065.56;;;7.50;92.24
15529;BME280;7866;52.280;9.500;2024-03-02T05:36:52;99064.75;;;7.49;92.40
15529;BME280;7866;52.280;9.500;2024-03-02T05:41:55;99068.66;;;7.76;92.39
15529;BME280;7866;52.280;9.500;2024-03-02T05:46:56;99069.38;;;7.85;92.40
15529;BME280;7866;52.280;9.500;2024-03-02T05:51:58;99070.22;;;7.85;91.14
15529;BME280;7866;52.280;9.500;2024-03-02T05:57:01;99074.63;;;7.78;91.24
15529;BME280;7866;52.280;9.500;2024-03-02T06:02:17;99078.53;;;7.53;90.94
15529;BME280;7866;52.280;9.500;2024-03-02T06:07:18;99092.13;;;7.43;91.58
15529;BME280;7866;52.280;9.500;2024-03-02T06:12:21;99099.41;;;7.03;92.29
15529;BME280;7866;52.280;9.500;2024-03-02T06:17:23;99096.31;;;6.91;93.62
15529;BME280;7866;52.280;9.500;2024-03-02T06:22:24;99098.59;;;7.03;93.92
15529;BME280;7866;52.280;9.500;2024-03-02T06:27:27;99099.22;;;7.05;94.07
15529;BME280;7866;52.280;9.500;2024-03-02T06:32:29;99101.81;;;6.90;94.67
15529;BME280;7866;52.280;9.500;2024-03-02T06:37:31;99112.09;;;6.93;95.16
15529;BME280;7866;52.280;9.500;2024-03-02T06:42:34;99109.28;;;7.18;94.46
15529;BME280;7866;52.280;9.500;2024-03-02T06:47:36;99129.59;;;7.19;94.32
15529;BME280;7866;52.280;9.500;2024-03-02T06:52:37;99125.44;;;7.39;93.93
15529;BME280;7866;52.280;9.500;2024-03-02T06:57:40;99129.75;;;7.40;93.95
15529;BME280;7866;52.280;9.500;2024-03-02T07:02:43;99128.59;;;7.43;93.71
15529;BME280;7866;52.280;9.500;2024-03-02T07:07:45;99123.00;;;7.52;93.29
15529;BME280;7866;52.280;9.500;2024-03-02T07:12:47;99129.31;;;7.74;92.72
15529;BME280;7866;52.280;9.500;2024-03-02T07:17:49;99125.88;;;8.18;92.51
15529;BME280;7866;52.280;9.500;2024-03-02T07:22:51;99136.34;;;8.64;89.38
15529;BME280;7866;52.280;9.500;2024-03-02T07:27:54;99144.00;;;9.03;87.42
15529;BME280;7866;52.280;9.500;2024-03-02T07:32:55;99132.66;;;9.37;85.60
15529;BME280;7866;52.280;9.500;2024-03-02T07:37:57;99146.69;;;9.68;83.98
15529;BME280;7866;52.280;9.500;2024-03-02T07:43:00;99140.59;;;9.80;83.54
15529;BME280;7866;52.280;9.500;2024-03-02T07:48:02;99144.09;;;10.02;81.76
15529;BME280;7866;52.280;9.500;2024-03-02T07:53:05;99138.16;;;10.07;81.03
15529;BME280;7866;52.280;9.500;2024-03-02T07:58:09;99155.38;;;10.26;80.83
15529;BME280;7866;52.280;9.500;2024-03-02T08:03:11;99151.53;;;10.35;79.80
15529;BME280;7866;52.280;9.500;2024-03-02T08:08:13;99154.25;;;10.48;79.79
15529;BME280;7866;52.280;9.500;2024-03-02T08:13:16;99154.56;;;10.67;79.58
15529;BME280;7866;52.280;9.500;2024-03-02T08:18:17;99157.69;;;10.77;78.29
15529;BME280;7866;52.280;9.500;2024-03-02T08:23:19;99153.53;;;10.68;77.59
15529;BME280;7866;52.280;9.500;2024-03-02T08:28:22;99167.22;;;10.86;77.75
15529;BME280;7866;52.280;9.500;2024-03-02T08:33:24;99162.56;;;11.01;78.24
15529;BME280;7866;52.280;9.500;2024-03-02T08:38:25;99176.28;;;10.85;77.41
15529;BME280;7866;52.280;9.500;2024-03-02T08:43:29;99170.97;;;10.98;78.00
15529;BME280;7866;52.280;9.500;2024-03-02T08:48:30;99182.56;;;11.05;77.22
15529;BME280;7866;52.280;9.500;2024-03-02T08:53:32;99184.34;;;10.92;77.77
15529;BME280;7866;52.280;9.500;2024-03-02T08:58:35;99184.97;;;10.94;77.67
15529;BME280;7866;52.280;9.500;2024-03-02T09:03:36;99194.28;;;10.98;77.71
15529;BME280;7866;52.280;9.500;2024-03-02T09:08:38;99192.22;;;11.00;78.17
15529;BME280;7866;52.280;9.500;2024-03-02T09:13:41;99201.44;;;10.91;78.12
15529;BME280;7866;52.280;9.500;2024-03-02T09:18:43;99199.03;;;11.02;78.65
15529;BME280;7866;52.280;9.500;2024-03-02T09:23:44;99198.47;;;11.14;77.63
15529;BME280;7866;52.280;9.500;2024-03-02T09:28:48;99191.25;;;11.21;77.49
15529;BME280;7866;52.280;9.500;2024-03-02T09:33:50;99200.34;;;11.26;76.74
15529;BME280;7866;52.280;9.500;2024-03-02T09:38:52;99188.00;;;11.39;76.90
15529;BME280;7866;52.280;9.500;2024-03-02T09:43:55;99196.09;;;11.58;76.89
15529;BME280;7866;52.280;9.500;2024-03-02T09:48:58;99186.19;;;11.72;75.21
15529;BME280;7866;52.280;9.500;2024-03-02T09:54:01;99200.25;;;11.74;74.59
15529;BME280;7866;52.280;9.500;2024-03-02T09:59:06;99206.06;;;11.98;74.98
15529;BME280;7866;52.280;9.500;2024-03-02T10:04:09;99207.50;;;11.94;74.90
15529;BME280;7866;52.280;9.500;2024-03-02T10:09:11;99213.44;;;11.82;73.98
15529;BME280;7866;52.280;9.500;2024-03-02T10:14:29;99206.47;;;11.95;74.74
15529;BME280;7866;52.280;9.500;2024-03-02T10:19:31;99206.91;;;11.98;74.08
15529;BME280;7866;52.280;9.500;2024-03-02T10:24:36;99220.09;;;12.33;71.82
15529;BME280;7866;52.280;9.500;2024-03-02T10:29:40;99212.47;;;12.30;71.89
15529;BME280;7866;52.280;9.500;2024-03-02T10:34:43;99210.75;;;12.55;71.55
15529;BME280;7866;52.280;9.500;2024-03-02T10:39:46;99210.69;;;12.82;70.34
15529;BME280;7866;52.280;9.500;2024-03-02T10:44:49;99212.97;;;12.85;70.43
15529;BME280;7866;52.280;9.500;2024-03-02T10:49:52;99214.38;;;13.01;69.15
15529;BME280;7866;52.280;9.500;2024-03-02T10:54:55;99214.84;;;12.78;70.54
15529;BME280;7866;52.280;9.500;2024-03-02T11:00:02;99210.75;;;12.62;70.53
15529;BME280;7866;52.280;9.500;2024-03-02T11:05:06;99221.69;;;12.74;70.10
15529;BME280;7866;52.280;9.500;2024-03-02T11:10:10;99211.75;;;12.74;69.72
15529;BME280;7866;52.280;9.500;2024-03-02T11:15:17;99210.66;;;12.95;69.70
15529;BME280;7866;52.280;9.500;2024-03-02T11:20:19;99209.34;;;13.04;68.44
15529;BME280;7866;52.280;9.500;2024-03-02T11:25:25;99208.91;;;13.21;68.15
15529;BME280;7866;52.280;9.500;2024-03-02T11:30:50;99219.13;;;13.44;66.48
15529;BME280;7866;52.280;9.500;2024-03-02T11:35:52;99205.78;;;13.69;66.18
15529;BME280;7866;52.280;9.500;2024-03-02T11:40:54;99196.94;;;13.87;64.96
15529;BME280;7866;52.280;9.500;2024-03-02T11:46:01;99199.34;;;14.20;63.80
15529;BME280;7866;52.280;9.500;2024-03-02T11:51:07;99202.41;;;14.48;63.32
15529;BME280;7866;52.280;9.500;2024-03-02T11:56:09;99197.25;;;14.47;62.97
15529;BME280;7866;52.280;9.500;2024-03-02T12:01:13;99205.28;;;14.53;64.29
15529;BME280;7866;52.280;9.500;2024-03-02T12:06:15;99197.75;;;14.37;62.80
15529;BME280;7866;52.280;9.500;2024-03-02T12:11:16;99195.41;;;14.22;63.40
15529;BME280;7866;52.280;9.500;2024-03-02T12:16:24;99175.66;;;14.53;62.38
15529;BME280;7866;52.280;9.500;2024-03-02T12:21:26;99176.31;;;14.67;62.92
15529;BME280;7866;52.280;9.500;2024-03-02T12:26:28;99164.81;;;14.78;59.86
15529;BME280;7866;52.280;9.500;2024-03-02T12:31:32;99166.38;;;15.05;62.43
15529;BME280;7866;52.280;9.500;2024-03-02T12:36:37;99167.63;;;15.02;62.77
15529;BME280;7866;52.280;9.500;2024-03-02T12:41:39;99167.69;;;14.95;63.48
15529;BME280;7866;52.280;9.500;2024-03-02T12:46:42;99151.38;;;14.90;64.81
15529;BME280;7866;52.280;9.500;2024-03-02T12:51:44;99160.41;;;14.84;64.06
15529;BME280;7866;52.280;9.500;2024-03-02T12:56:47;99169.31;;;15.33;62.90
15529;BME280;7866;52.280;9.500;2024-03-02T13:01:54;99156.66;;;15.15;62.91
15529;BME280;7866;52.280;9.500;2024-03-02T13:06:57;99159.44;;;15.39;62.51
15529;BME280;7866;52.280;9.500;2024-03-02T13:11:59;99155.53;;;15.23;61.24
15529;BME280;7866;52.280;9.500;2024-03-02T13:17:03;99147.56;;;15.58;60.98
15529;BME280;7866;52.280;9.500;2024-03-02T13:22:05;99144.97;;;15.63;59.58
15529;BME280;7866;52.280;9.500;2024-03-02T13:27:07;99134.69;;;15.30;61.33
15529;BME280;7866;52.280;9.500;2024-03-02T13:32:10;99129.53;;;15.70;61.21
15529;BME280;7866;52.280;9.500;2024-03-02T13:37:13;99130.84;;;16.03;60.04
15529;BME280;7866;52.280;9.500;2024-03-02T13:42:15;99133.34;;;16.05;59.77
15529;BME280;7866;52.280;9.500;2024-03-02T13:47:18;99128.50;;;15.95;59.94
15529;BME280;7866;52.280;9.500;2024-03-02T13:52:19;99124.41;;;16.16;59.53
15529;BME280;7866;52.280;9.500;2024-03-02T13:57:21;99122.41;;;16.11;59.81
15529;BME280;7866;52.280;9.500;2024-03-02T14:02:24;99115.97;;;16.00;60.82
15529;BME280;7866;52.280;9.500;2024-03-02T14:07:26;99112.53;;;15.93;59.71
15529;BME280;7866;52.280;9.500;2024-03-02T14:12:28;99106.91;;;16.18;59.59
15529;BME280;7866;52.280;9.500;2024-03-02T14:17:31;99116.09;;;15.64;60.59
15529;BME280;7866;52.280;9.500;2024-03-02T14:22:33;99100.28;;;15.67;60.23
15529;BME280;7866;52.280;9.500;2024-03-02T14:27:34;99107.16;;;15.51;60.80
15529;BME280;7866;52.280;9.500;2024-03-02T14:32:38;99114.69;;;15.49;60.04
15529;BME280;7866;52.280;9.500;2024-03-02T14:37:39;99106.72;;;15.55;60.75
15529;BME280;7866;52.280;9.500;2024-03-02T14:42:41;99105.19;;;15.59;60.58
15529;BME280;7866;52.280;9.500;2024-03-02T14:47:49;99111.25;;;15.84;59.88
15529;BME280;7866;52.280;9.500;2024-03-02T14:52:50;99105.50;;;15.81;59.57
15529;BME280;7866;52.280;9.500;2024-03-02T14:57:52;99105.84;;;15.84;59.25
15529;BME280;7866;52.280;9.500;2024-03-02T15:02:55;99100.97;;;15.63;60.08
15529;BME280;7866;52.280;9.500;2024-03-02T15:07:57;99114.34;;;15.58;59.65
15529;BME280;7866;52.280;9.500;2024-03-02T15:12:59;99096.84;;;15.48;60.45
15529;BME280;7866;52.280;9.500;2024-03-02T15:18:03;99097.69;;;15.49;59.54
15529;BME280;7866;52.280;9.500;2024-03-02T15:23:05;99101.72;;;15.28;59.72
15529;BME280;7866;52.280;9.500;2024-03-02T15:28:07;99097.50;;;15.20;58.92
15529;BME280;7866;52.280;9.500;2024-03-02T15:33:10;99096.84;;;15.07;59.11
15529;BME280;7866;52.280;9.500;2024-03-02T15:38:11;99086.38;;;14.98;59.24
15529;BME280;7866;52.280;9.500;2024-03-02T15:43:15;99090.00;;;14.92;59.21
15529;BME280;7866;52.280;9.500;2024-03-02T15:48:18;99085.38;;;14.81;60.04
15529;BME280;7866;52.280;9.500;2024-03-02T15:53:20;99092.28;;;14.59;60.57
15529;BME280;7866;52.280;9.500;2024-03-02T15:58:22;99090.13;;;14.49;61.50
15529;BME280;7866;52.280;9.500;2024-03-02T16:03:25;99090.31;;;14.29;61.17
15529;BME280;7866;52.280;9.500;2024-03-02T16:08:26;99084.84;;;14.17;61.63
15529;BME280;7866;52.280;9.500;2024-03-02T16:13:28;99087.91;;;14.02;60.95
15529;BME280;7866;52.280;9.500;2024-03-02T16:18:32;99091.31;;;13.91;62.65
15529;BME280;7866;52.280;9.500;2024-03-02T16:23:34;99100.72;;;13.82;62.45
15529;BME280;7866;52.280;9.500;2024-03-02T16:28:36;99092.91;;;13.74;62.61
15529;BME280;7866;52.280;9.500;2024-03-02T16:33:39;99098.78;;;13.64;63.14
15529;BME280;7866;52.280;9.500;2024-03-02T16:38:40;99090.16;;;13.55;63.58
15529;BME280;7866;52.280;9.500;2024-03-02T16:43:43;99103.00;;;13.22;65.23
15529;BME280;7866;52.280;9.500;2024-03-02T16:48:47;99103.25;;;13.14;65.72
15529;BME280;7866;52.280;9.500;2024-03-02T16:53:49;99119.22;;;13.09;65.91
15529;BME280;7866;52.280;9.500;2024-03-02T16:58:50;99107.81;;;12.68;67.69
15529;BME280;7866;52.280;9.500;2024-03-02T17:03:53;99111.06;;;12.25;69.64
15529;BME280;7866;52.280;9.500;2024-03-02T17:08:55;99118.09;;;12.20;69.90
15529;BME280;7866;52.280;9.500;2024-03-02T17:13:56;99122.47;;;11.74;71.98
15529;BME280;7866;52.280;9.500;2024-03-02T17:19:00;99124.72;;;11.64;72.25
15529;BME280;7866;52.280;9.500;2024-03-02T17:24:02;99131.09;;;11.30;73.36
15529;BME280;7866;52.280;9.500;2024-03-02T17:29:03;99138.47;;;11.15;74.69
15529;BME280;7866;52.280;9.500;2024-03-02T17:34:06;99134.09;;;10.94;76.05
15529;BME280;7866;52.280;9.500;2024-03-02T17:39:08;99136.69;;;11.42;74.14
15529;BME280;7866;52.280;9.500;2024-03-02T17:44:10;99141.63;;;11.51;72.46
15529;BME280;7866;52.280;9.500;2024-03-02T17:49:13;99137.94;;;11.66;71.17
15529;BME280;7866;52.280;9.500;2024-03-02T17:54:15;99145.16;;;11.65;71.64
15529;BME280;7866;52.280;9.500;2024-03-02T17:59:17;99150.91;;;11.75;70.25
15529;BME280;7866;52.280;9.500;2024-03-02T18:04:20;99150.09;;;11.62;70.69
15529;BME280;7866;52.280;9.500;2024-03-02T18:09:22;99157.72;;;11.58;70.75
15529;BME280;7866;52.280;9.500;2024-03-02T18:14:24;99164.53;;;11.54;70.85
15529;BME280;7866;52.280;9.500;2024-03-02T18:19:27;99166.25;;;11.00;72.60
15529;BME280;7866;52.280;9.500;2024-03-02T18:24:29;99173.66;;;10.50;75.05
15529;BME280;7866;52.280;9.500;2024-03-02T18:29:31;99170.44;;;10.05;76.68
15529;BME280;7866;52.280;9.500;2024-03-02T18:34:34;99166.59;;;9.65;79.61
15529;BME280;7866;52.280;9.500;2024-03-02T18:39:35;99169.84;;;9.60;80.14
15529;BME280;7866;52.280;9.500;2024-03-02T18:44:37;99175.06;;;9.47;80.61
15529;BME280;7866;52.280;9.500;2024-03-02T18:49:43;99173.84;;;9.28;81.48
15529;BME280;7866;52.280;9.500;2024-03-02T18:54:46;99180.59;;;9.24;82.73
15529;BME280;7866;52.280;9.500;2024-03-02T18:59:47;99175.72;;;9.13;82.83
15529;BME280;7866;52.280;9.500;2024-03-02T19:04:50;99177.91;;;8.88;83.17
15529;BME280;7866;52.280;9.500;2024-03-02T19:09:52;99173.59;;;8.72;84.86
15529;BME280;7866;52.280;9.500;2024-03-02T19:14:53;99180.91;;;8.63;85.34
15529;BME280;7866;52.280;9.500;2024-03-02T19:19:56;99175.19;;;8.67;85.55
15529;BME280;7866;52.280;9.500;2024-03-02T19:24:58;99170.59;;;8.60;84.98
15529;BME280;7866;52.280;9.500;2024-03-02T19:30:01;99168.00;;;8.52;85.54
15529;BME280;7866;52.280;9.500;2024-03-02T19:35:07;99176.06;;;8.29;86.08
15529;BME280;7866;52.280;9.500;2024-03-02T19:40:09;99166.41;;;8.28;86.33
15529;BME280;7866;52.280;9.500;2024-03-02T19:45:11;99166.00;;;8.02;87.12
15529;BME280;7866;52.280;9.500;2024-03-02T19:50:14;99155.28;;;8.10;87.26
15529;BME280;7866;52.280;9.500;2024-03-02T19:55:17;99151.50;;;8.04;88.04
15529;BME280;7866;52.280;9.500;2024-03-02T20:00:20;99152.31;;;7.90;88.52
15529;BME280;7866;52.280;9.500;2024-03-02T20:05:23;99153.16;;;7.90;88.56
15529;BME280;7866;52.280;9.500;2024-03-02T20:10:26;99138.31;;;7.88;88.37
15529;BME280;7866;52.280;9.500;2024-03-02T20:15:28;99154.03;;;7.83;88.39
15529;BME280;7866;52.280;9.500;2024-03-02T20:20:31;99149.00;;;7.88;87.67
15529;BME280;7866;52.280;9.500;2024-03-02T20:25:32;99145.47;;;7.73;88.77
15529;BME280;7866;52.280;9.500;2024-03-02T20:30:34;99149.28;;;7.55;89.33
15529;BME280;7866;52.280;9.500;2024-03-02T20:35:37;99138.00;;;7.68;89.47
15529;BME280;7866;52.280;9.500;2024-03-02T20:40:39;99134.25;;;7.62;88.86
15529;BME280;7866;52.280;9.500;2024-03-02T20:45:42;99129.25;;;7.59;89.82
15529;BME280;7866;52.280;9.500;2024-03-02T20:50:45;99116.78;;;7.60;89.02
15529;BME280;7866;52.280;9.500;2024-03-02T20:55:47;99116.28;;;7.56;88.83
15529;BME280;7866;52.280;9.500;2024-03-02T21:00:48;99119.56;;;7.44;90.04
15529;BME280;7866;52.280;9.500;2024-03-02T21:05:51;99109.28;;;7.40;90.03
15529;BME280;7866;52.280;9.500;2024-03-02T21:10:53;99112.19;;;7.31;90.20
15529;BME280;7866;52.280;9.500;2024-03-02T21:15:55;99112.81;;;7.33;89.99
15529;BME280;7866;52.280;9.500;2024-03-02T21:20:58;99122.31;;;7.35;90.39
15529;BME280;7866;52.280;9.500;2024-03-02T21:25:59;99120.75;;;7.41;90.69
15529;BME280;7866;52.280;9.500;2024-03-02T21:31:02;99128.09;;;7.39;90.30
15529;BME280;7866;52.280;9.500;2024-03-02T21:36:06;99129.50;;;7.50;89.88
15529;BME280;7866;52.280;9.500;2024-03-02T21:41:07;99121.41;;;7.43;89.55
15529;BME280;7866;52.280;9.500;2024-03-02T21:46:10;99120.13;;;7.39;88.92
15529;BME280;7866;52.280;9.500;2024-03-02T21:51:15;99125.59;;;7.37;88.82
15529;BME280;7866;52.280;9.500;2024-03-02T21:56:17;99130.44;;;7.34;88.75
15529;BME280;7866;52.280;9.500;2024-03-02T22:01:19;99126.88;;;7.27;89.01
15529;BME280;7866;52.280;9.500;2024-03-02T22:06:22;99124.00;;;7.05;90.39
15529;BME280;7866;52.280;9.500;2024-03-02T22:11:23;99125.16;;;7.11;91.00
15529;BME280;7866;52.280;9.500;2024-03-02T22:16:25;99109.72;;;7.06;92.06
15529;BME280;7866;52.280;9.500;2024-03-02T22:21:28;99105.56;;;7.04;91.17
15529;BME280;7866;52.280;9.500;2024-03-02T22:26:30;99110.47;;;6.92;91.42
15529;BME280;7866;52.280;9.500;2024-03-02T22:31:31;99110.13;;;6.95;90.90
15529;BME280;7866;52.280;9.500;2024-03-02T22:36:34;99104.50;;;6.82;90.66
15529;BME280;7866;52.280;9.500;2024-03-02T22:41:36;99109.50;;;6.85;90.97
15529;BME280;7866;52.280;9.500;2024-03-02T22:46:37;99103.22;;;6.78;91.26
15529;BME280;7866;52.280;9.500;2024-03-02T22:51:40;99096.84;;;6.87;90.21
15529;BME280;7866;52.280;9.500;2024-03-02T22:56:42;99093.19;;;6.88;90.58
15529;BME280;7866;52.280;9.500;2024-03-02T23:01:44;99089.94;;;6.70;90.93
15529;BME280;7866;52.280;9.500;2024-03-02T23:06:47;99088.97;;;6.71;90.76
15529;BME280;7866;52.280;9.500;2024-03-02T23:11:48;99084.34;;;6.64;90.80
15529;BME280;7866;52.280;9.500;2024-03-02T23:16:51;99084.72;;;6.53;91.19
15529;BME280;7866;52.280;9.500;2024-03-02T23:21:54;99086.78;;;6.43;91.99
15529;BME280;7866;52.280;9.500;2024-03-02T23:26:56;99074.31;;;6.44;92.46
15529;BME280;7866;52.280;9.500;2024-03-02T23:31:57;99079.41;;;6.53;92.82
15529;BME280;7866;52.280;9.500;2024-03-02T23:37:00;99068.03;;;6.36;93.10
15529;BME280;7866;52.280;9.500;2024-03-02T23:42:02;99068.25;;;6.27;93.32
15529;BME280;7866;52.280;9.500;2024-03-02T23:47:04;99067.06;;;6.29;93.23
15529;BME280;7866;52.280;9.500;2024-03-02T23:52:09;99056.41;;;6.29;92.74
15529;BME280;7866;52.280;9.500;2024-03-02T23:57:11;99061.81;;;6.13;92.22
